createdAt,value
2018-12-07T00:01:53.690Z,99968.53
2018-12-07T00:04:27.597Z,99958.45
2018-12-07T00:07:00.618Z,99958.84
2018-12-07T00:09:35.625Z,99949.92
2018-12-07T00:12:10.605Z,99951.91
2018-12-07T00:14:43.590Z,99949.68
2018-12-07T00:17:16.801Z,99944.80
2018-12-07T00:19:52.509Z,99948.13
2018-12-07T00:22:25.535Z,99942.75
2018-12-07T00:25:00.952Z,99937.08
2018-12-07T00:27:34.607Z,99934.00
2018-12-07T00:30:07.720Z,99929.36
2018-12-07T00:32:46.105Z,99919.99
2018-12-07T00:35:19.081Z,99916.31
2018-12-07T00:37:52.091Z,99912.08
2018-12-07T00:40:25.687Z,99905.72
2018-12-07T00:42:59.757Z,99904.69
2018-12-07T00:45:32.904Z,99905.33
2018-12-07T00:48:10.279Z,99897.75
2018-12-07T00:50:43.365Z,99888.38
2018-12-07T00:53:18.627Z,99890.62
2018-12-07T00:55:52.005Z,99894.35
2018-12-07T00:58:25.017Z,99892.73
2018-12-07T01:00:57.975Z,99892.59
2018-12-07T01:03:31.027Z,99892.17
2018-12-07T01:06:05.043Z,99884.26
2018-12-07T01:08:39.605Z,99888.47
2018-12-07T01:11:12.593Z,99876.89
2018-12-07T01:13:45.857Z,99874.33
2018-12-07T01:16:21.397Z,99877.32
2018-12-07T01:18:55.614Z,99869.04
2018-12-07T01:21:28.889Z,99862.78
2018-12-07T01:24:02.444Z,99863.76
2018-12-07T01:26:35.443Z,99858.89
2018-12-07T01:29:08.457Z,99857.26
2018-12-07T01:31:42.057Z,99851.24
2018-12-07T01:34:15.480Z,99850.30
2018-12-07T01:36:48.606Z,99850.36
2018-12-07T01:39:24.078Z,99855.74
2018-12-07T01:41:57.484Z,99851.92
2018-12-07T01:44:30.605Z,99854.72
2018-12-07T01:47:04.517Z,99854.78
2018-12-07T01:49:37.715Z,99854.98
2018-12-07T01:52:10.800Z,99854.48
2018-12-07T01:54:44.855Z,99850.34
2018-12-07T01:57:17.827Z,99847.71
2018-12-07T01:59:50.841Z,99841.77
2018-12-07T02:02:24.185Z,99844.54
2018-12-07T02:04:57.213Z,99839.24
2018-12-07T02:07:36.269Z,99839.50
2018-12-07T02:10:14.500Z,99832.08
2018-12-07T02:12:47.412Z,99831.63
2018-12-07T02:15:21.441Z,99830.21
2018-12-07T02:17:55.685Z,99831.20
2018-12-07T02:20:28.511Z,99822.22
2018-12-07T02:23:02.200Z,99819.09
2018-12-07T02:25:35.641Z,99816.95
2018-12-07T02:28:08.595Z,99804.44
2018-12-07T02:30:42.370Z,99803.11
2018-12-07T02:33:16.511Z,99799.34
2018-12-07T02:35:49.532Z,99795.47
2018-12-07T02:38:22.526Z,99797.98
2018-12-07T02:40:55.936Z,99793.53
2018-12-07T02:43:28.837Z,99789.78
2018-12-07T02:46:03.178Z,99792.07
2018-12-07T02:48:36.675Z,99788.80
2018-12-07T02:51:09.528Z,99788.22
2018-12-07T02:53:42.479Z,99782.84
2018-12-07T02:56:15.880Z,99776.90
2018-12-07T02:58:48.817Z,99773.30
2018-12-07T03:01:21.642Z,99769.49
2018-12-07T03:03:55.934Z,99769.71
2018-12-07T03:06:29.148Z,99771.55
2018-12-07T03:09:02.658Z,99765.68
2018-12-07T03:11:37.152Z,99764.27
2018-12-07T03:14:10.141Z,99758.05
2018-12-07T03:16:43.337Z,99756.38
2018-12-07T03:19:16.982Z,99754.44
2018-12-07T03:21:49.811Z,99748.26
2018-12-07T03:24:22.898Z,99748.09
2018-12-07T03:26:56.225Z,99739.18
2018-12-07T03:29:29.501Z,99743.19
2018-12-07T03:32:02.378Z,99736.64
2018-12-07T03:34:35.704Z,99736.77
2018-12-07T03:37:08.853Z,99731.94
2018-12-07T03:39:42.074Z,99729.91
2018-12-07T03:42:15.580Z,99726.34
2018-12-07T03:44:48.558Z,99724.06
2018-12-07T03:47:21.536Z,99722.89
2018-12-07T03:49:54.982Z,99716.41
2018-12-07T03:52:28.207Z,99713.75
2018-12-07T03:55:01.438Z,99708.26
2018-12-07T03:57:34.885Z,99709.53
2018-12-07T04:00:08.613Z,99709.82
2018-12-07T04:02:49.095Z,99704.66
2018-12-07T04:05:23.427Z,99695.16
2018-12-07T04:07:56.700Z,99697.22
2018-12-07T04:10:30.136Z,99690.73
2018-12-07T04:13:03.058Z,99685.52
2018-12-07T04:15:36.132Z,99682.34
2018-12-07T04:18:09.471Z,99680.37
2018-12-07T04:20:42.513Z,99676.70
2018-12-07T04:23:15.494Z,99671.22
2018-12-07T04:25:49.918Z,99664.77
2018-12-07T04:28:22.874Z,99666.31
2018-12-07T04:30:55.930Z,99670.98
2018-12-07T04:33:29.522Z,99667.89
2018-12-07T04:36:07.359Z,99664.75
2018-12-07T04:38:40.982Z,99664.61
2018-12-07T04:41:16.644Z,99661.36
2018-12-07T04:43:49.626Z,99657.33
2018-12-07T04:46:23.565Z,99654.64
2018-12-07T04:48:58.071Z,99650.81
2018-12-07T04:51:31.052Z,99645.05
2018-12-07T04:54:04.052Z,99641.29
2018-12-07T04:56:37.621Z,99640.20
2018-12-07T04:59:11.569Z,99634.74
2018-12-07T05:01:47.203Z,99634.86
2018-12-07T05:04:20.473Z,99630.74
2018-12-07T05:06:53.391Z,99629.40
2018-12-07T05:09:26.722Z,99627.73
2018-12-07T05:12:01.650Z,99628.23
2018-12-07T05:14:34.703Z,99623.84
2018-12-07T05:17:08.658Z,99619.23
2018-12-07T05:19:41.963Z,99616.20
2018-12-07T05:22:15.016Z,99614.22
2018-12-07T05:24:47.975Z,99611.09
2018-12-07T05:27:21.557Z,99608.48
2018-12-07T05:29:55.138Z,99604.80
2018-12-07T05:32:29.578Z,99599.23
2018-12-07T05:35:03.115Z,99598.04
2018-12-07T05:37:37.524Z,99592.58
2018-12-07T05:40:10.379Z,99591.88
2018-12-07T05:42:43.818Z,99586.66
2018-12-07T05:45:18.904Z,99580.88
2018-12-07T05:47:51.841Z,99576.73
2018-12-07T05:50:26.189Z,99575.97
2018-12-07T05:53:00.275Z,99570.61
2018-12-07T05:55:33.290Z,99561.34
2018-12-07T05:58:06.861Z,99562.11
2018-12-07T06:00:41.127Z,99558.86
2018-12-07T06:03:14.241Z,99565.31
2018-12-07T06:05:47.268Z,99557.55
2018-12-07T06:08:20.341Z,99553.88
2018-12-07T06:10:55.345Z,99549.47
2018-12-07T06:13:30.085Z,99541.47
2018-12-07T06:16:03.179Z,99544.48
2018-12-07T06:18:36.270Z,99522.78
2018-12-07T06:21:10.296Z,99530.87
2018-12-07T06:23:43.258Z,99522.19
2018-12-07T06:26:16.268Z,99518.54
2018-12-07T06:28:50.630Z,99514.24
2018-12-07T06:31:23.673Z,99516.33
2018-12-07T06:34:00.389Z,99513.16
2018-12-07T06:36:33.817Z,99515.28
2018-12-07T06:39:11.097Z,99509.60
2018-12-07T06:41:45.024Z,99508.48
2018-12-07T06:44:18.669Z,99507.22
2018-12-07T06:46:53.077Z,99504.78
2018-12-07T06:49:26.904Z,99501.61
2018-12-07T06:52:00.275Z,99500.05
2018-12-07T06:54:33.225Z,99498.22
2018-12-07T06:57:06.861Z,99497.53
2018-12-07T06:59:40.653Z,99489.92
2018-12-07T07:02:14.598Z,99489.05
2018-12-07T07:04:48.010Z,99489.31
2018-12-07T07:07:21.620Z,99482.09
2018-12-07T07:09:54.636Z,99484.58
2018-12-07T07:12:30.621Z,99477.70
2018-12-07T07:15:05.141Z,99478.02
2018-12-07T07:17:38.722Z,99475.23
2018-12-07T07:20:13.187Z,99464.45
2018-12-07T07:22:46.148Z,99462.81
2018-12-07T07:25:19.125Z,99460.39
2018-12-07T07:27:55.417Z,99454.50
2018-12-07T07:30:28.354Z,99456.23
2018-12-07T07:33:01.349Z,99452.11
2018-12-07T07:35:36.726Z,99447.06
2018-12-07T07:38:09.627Z,99446.20
2018-12-07T07:40:43.578Z,99440.84
2018-12-07T07:43:18.050Z,99439.91
2018-12-07T07:45:50.996Z,99439.69
2018-12-07T07:48:24.007Z,99438.85
2018-12-07T07:50:57.637Z,99434.65
2018-12-07T07:53:30.639Z,99435.59
2018-12-07T07:56:04.718Z,99424.76
2018-12-07T07:58:38.978Z,99423.07
2018-12-07T08:01:11.988Z,99418.81
2018-12-07T08:03:45.153Z,99417.23
2018-12-07T08:06:18.564Z,99425.48
2018-12-07T08:08:52.474Z,99426.77
2018-12-07T08:11:25.344Z,99426.54
2018-12-07T08:14:06.798Z,99414.33
2018-12-07T08:16:43.266Z,99413.84
2018-12-07T08:19:19.458Z,99408.73
2018-12-07T08:21:56.123Z,99408.27
2018-12-07T08:24:37.752Z,99406.84
2018-12-07T08:27:30.574Z,99409.67
2018-12-07T08:30:13.988Z,99407.31
2018-12-07T08:32:48.775Z,99407.08
2018-12-07T08:35:25.361Z,99408.02
2018-12-07T08:38:02.601Z,99407.19
2018-12-07T08:40:51.292Z,99403.73
2018-12-07T08:43:29.262Z,99396.59
2018-12-07T08:46:13.717Z,99393.27
2018-12-07T08:48:50.244Z,99391.31
2018-12-07T08:51:32.469Z,99390.22
2018-12-07T08:54:20.314Z,99381.09
2018-12-07T08:56:57.979Z,99378.27
2018-12-07T08:59:34.154Z,99372.39
2018-12-07T09:02:08.388Z,99374.04
2018-12-07T09:04:41.540Z,99366.53
2018-12-07T09:07:14.565Z,99362.97
2018-12-07T09:09:59.536Z,99358.47
2018-12-07T09:12:35.112Z,99355.58
2018-12-07T09:15:13.938Z,99350.20
2018-12-07T09:17:49.590Z,99339.09
2018-12-07T09:20:23.425Z,99338.06
2018-12-07T09:22:57.658Z,99332.38
2018-12-07T09:25:32.109Z,99330.89
2018-12-07T09:28:06.306Z,99326.94
2018-12-07T09:30:39.261Z,99323.06
2018-12-07T09:33:12.304Z,99325.03
2018-12-07T09:35:45.234Z,99321.05
2018-12-07T09:38:18.157Z,99316.97
2018-12-07T09:40:51.861Z,99305.23
2018-12-07T09:43:24.900Z,99299.16
2018-12-07T09:46:08.881Z,99294.58
2018-12-07T09:48:42.466Z,99282.39
2018-12-07T09:51:18.896Z,99272.28
2018-12-07T09:53:52.613Z,99264.14
2018-12-07T09:56:27.552Z,99261.92
2018-12-07T09:59:01.163Z,99258.55
2018-12-07T10:01:39.512Z,99245.38
2018-12-07T10:04:13.381Z,99253.14
2018-12-07T10:06:46.363Z,99233.47
2018-12-07T10:09:23.162Z,99223.86
2018-12-07T10:11:56.118Z,99215.28
2018-12-07T10:14:29.185Z,99209.23
2018-12-07T10:17:05.652Z,99207.87
2018-12-07T10:19:40.782Z,99207.68
2018-12-07T10:22:16.097Z,99199.80
2018-12-07T10:24:49.475Z,99194.41
2018-12-07T10:27:22.452Z,99194.41
2018-12-07T10:29:57.018Z,99188.78
2018-12-07T10:32:33.860Z,99179.41
2018-12-07T10:35:07.893Z,99176.73
2018-12-07T10:37:42.375Z,99168.45
2018-12-07T10:40:18.445Z,99151.72
2018-12-07T10:42:51.554Z,99145.77
2018-12-07T10:45:25.201Z,99136.66
2018-12-07T10:48:00.993Z,99132.37
2018-12-07T10:50:34.245Z,99132.04
2018-12-07T10:53:07.166Z,99121.36
2018-12-07T10:55:40.668Z,99127.88
2018-12-07T10:58:14.045Z,99129.75
2018-12-07T11:00:53.344Z,99118.88
2018-12-07T11:03:32.875Z,99120.45
2018-12-07T11:06:30.157Z,99114.98
2018-12-07T11:09:22.251Z,99111.46
2018-12-07T11:12:04.377Z,99102.52
2018-12-07T11:14:43.713Z,99092.86
2018-12-07T11:17:23.357Z,99077.06
2018-12-07T11:20:02.636Z,99070.87
2018-12-07T11:22:45.574Z,99053.80
2018-12-07T11:25:24.036Z,99060.20
2018-12-07T11:28:03.185Z,99051.24
2018-12-07T11:30:41.510Z,99044.69
2018-12-07T11:33:21.220Z,99044.66
2018-12-07T11:35:54.320Z,99035.45
2018-12-07T11:38:27.850Z,99041.33
2018-12-07T11:41:02.068Z,99032.02
2018-12-07T11:43:36.188Z,99028.52
2018-12-07T11:46:09.709Z,99009.92
2018-12-07T11:48:44.774Z,98994.81
2018-12-07T11:51:19.296Z,98983.50
2018-12-07T11:53:53.514Z,98973.84
2018-12-07T11:56:26.369Z,98967.22
2018-12-07T11:59:00.332Z,98954.64
2018-12-07T12:01:35.655Z,98945.38
2018-12-07T12:04:09.893Z,98931.14
2018-12-07T12:06:43.746Z,98917.98
2018-12-07T12:09:20.044Z,98909.93
2018-12-07T12:11:53.716Z,98899.08
2018-12-07T12:14:29.892Z,98888.02
2018-12-07T12:17:04.502Z,98860.95
2018-12-07T12:19:39.734Z,98860.11
2018-12-07T12:22:21.230Z,98852.09
2018-12-07T12:24:57.521Z,98850.08
2018-12-07T12:27:31.476Z,98849.34
2018-12-07T12:30:07.734Z,98844.22
2018-12-07T12:32:43.766Z,98836.19
2018-12-07T12:35:21.488Z,98824.60
2018-12-07T12:37:55.561Z,98825.98
2018-12-07T12:40:30.333Z,98817.66
2018-12-07T12:43:08.366Z,98806.29
2018-12-07T12:45:42.597Z,98792.44
2018-12-07T12:48:15.663Z,98772.08
2018-12-07T12:50:50.664Z,98741.01
2018-12-07T12:53:23.645Z,98730.55
2018-12-07T12:56:07.622Z,98728.39
2018-12-07T12:58:52.014Z,98710.53
2018-12-07T13:01:27.343Z,98703.28
2018-12-07T13:04:01.794Z,98689.27
2018-12-07T13:06:35.982Z,98692.22
2018-12-07T13:09:11.615Z,98693.69
2018-12-07T13:11:49.530Z,98685.70
2018-12-07T13:14:23.062Z,98676.77
2018-12-07T13:16:57.109Z,98688.52
2018-12-07T13:19:30.544Z,98682.37
2018-12-07T13:22:04.529Z,98665.32
2018-12-07T13:24:37.394Z,98651.76
2018-12-07T13:27:27.724Z,98657.92
2018-12-07T13:30:04.435Z,98651.74
2018-12-07T13:32:39.704Z,98658.30
2018-12-07T13:35:13.644Z,98659.11
2018-12-07T13:37:51.670Z,98654.69
2018-12-07T13:40:24.833Z,98659.03
2018-12-07T13:43:02.556Z,98656.99
2018-12-07T13:45:39.265Z,98652.44
2018-12-07T13:48:14.583Z,98653.78
2018-12-07T13:50:51.105Z,98652.75
2018-12-07T13:53:27.783Z,98642.55
2018-12-07T13:56:01.984Z,98635.84
2018-12-07T13:58:37.470Z,98632.23
2018-12-07T14:01:12.626Z,98634.27
2018-12-07T14:03:48.532Z,98631.80
2018-12-07T14:06:24.746Z,98627.19
2018-12-07T14:08:58.546Z,98622.91
2018-12-07T14:11:32.794Z,98612.66
2018-12-07T14:14:07.609Z,98600.47
2018-12-07T14:16:43.228Z,98593.55
2018-12-07T14:19:17.355Z,98604.42
2018-12-07T14:21:51.425Z,98593.14
2018-12-07T14:24:29.617Z,98592.09
2018-12-07T14:27:04.424Z,98584.92
2018-12-07T14:29:40.557Z,98578.29
2018-12-07T14:32:14.180Z,98576.86
2018-12-07T14:34:49.140Z,98558.30
2018-12-07T14:37:22.227Z,98536.35
2018-12-07T14:39:55.635Z,98565.55
2018-12-07T14:42:33.374Z,98560.17
2018-12-07T14:45:10.255Z,98553.95
2018-12-07T14:47:46.598Z,98538.41
2018-12-07T14:50:19.872Z,98535.56
2018-12-07T14:52:53.264Z,98530.03
2018-12-07T14:55:27.872Z,98511.51
2018-12-07T14:58:01.840Z,98496.67
2018-12-07T15:00:37.886Z,98494.20
2018-12-07T15:03:11.968Z,98489.69
2018-12-07T15:05:46.023Z,98485.34
2018-12-07T15:08:19.148Z,98478.14
2018-12-07T15:10:52.969Z,98483.79
2018-12-07T15:13:26.941Z,98476.95
2018-12-07T15:16:00.983Z,98474.27
2018-12-07T15:18:36.363Z,98474.60
2018-12-07T15:21:10.573Z,98470.84
2018-12-07T15:23:46.093Z,98470.55
2018-12-07T15:26:22.091Z,98467.92
2018-12-07T15:28:56.262Z,98466.84
2018-12-07T15:31:31.765Z,98448.19
2018-12-07T15:34:06.765Z,98456.37
2018-12-07T15:36:40.472Z,98459.91
2018-12-07T15:39:15.700Z,98453.15
2018-12-07T15:41:50.344Z,98448.02
2018-12-07T15:44:25.966Z,98440.80
2018-12-07T15:47:00.069Z,98427.89
2018-12-07T15:49:34.539Z,98448.21
2018-12-07T15:52:09.338Z,98423.39
2018-12-07T15:54:42.591Z,98423.75
2018-12-07T15:57:15.782Z,98421.14
2018-12-07T15:59:51.362Z,98409.86
2018-12-07T16:02:26.280Z,98407.22
2018-12-07T16:04:59.887Z,98399.76
2018-12-07T16:07:38.730Z,98402.39
2018-12-07T16:10:15.382Z,98392.70
2018-12-07T16:12:48.282Z,98382.30
2018-12-07T16:15:22.511Z,98379.11
2018-12-07T16:17:56.358Z,98381.44
2018-12-07T16:20:31.203Z,98370.16
2018-12-07T16:23:04.531Z,98357.47
2018-12-07T16:25:39.458Z,98363.84
2018-12-07T16:28:12.553Z,98363.03
2018-12-07T16:30:46.604Z,98358.94
2018-12-07T16:33:20.512Z,98360.27
2018-12-07T16:35:53.919Z,98346.89
2018-12-07T16:38:28.668Z,98343.08
2018-12-07T16:41:03.039Z,98338.84
2018-12-07T16:43:37.650Z,98335.92
2018-12-07T16:46:11.482Z,98327.00
2018-12-07T16:48:48.042Z,98324.11
2018-12-07T16:51:22.994Z,98313.72
2018-12-07T16:53:59.543Z,98318.30
2018-12-07T16:56:32.959Z,98306.95
2018-12-07T16:59:07.188Z,98301.08
2018-12-07T17:01:40.665Z,98294.58
2018-12-07T17:04:16.248Z,98288.25
2018-12-07T17:06:52.835Z,98292.27
2018-12-07T17:09:26.267Z,98278.50
2018-12-07T17:12:00.293Z,98282.89
2018-12-07T17:14:35.266Z,98278.77
2018-12-07T17:17:09.801Z,98271.64
2018-12-07T17:19:47.240Z,98267.09
2018-12-07T17:22:25.298Z,98270.55
2018-12-07T17:25:00.918Z,98261.89
2018-12-07T17:27:35.870Z,98260.62
2018-12-07T17:30:13.516Z,98250.90
2018-12-07T17:32:50.740Z,98237.12
2018-12-07T17:35:25.066Z,98243.92
2018-12-07T17:38:00.156Z,98245.11
2018-12-07T17:40:37.931Z,98264.22
2018-12-07T17:43:11.496Z,98274.77
2018-12-07T17:45:47.582Z,98286.17
2018-12-07T17:48:21.721Z,98296.50
2018-12-07T17:50:55.538Z,98311.73
2018-12-07T17:53:29.981Z,98315.38
2018-12-07T17:56:06.326Z,98333.22
2018-12-07T17:58:41.541Z,98364.09
2018-12-07T18:01:14.592Z,98361.49
2018-12-07T18:03:51.039Z,98357.46
2018-12-07T18:06:26.766Z,98367.44
2018-12-07T18:09:04.025Z,98362.93
2018-12-07T18:11:37.837Z,98383.05
2018-12-07T18:14:13.218Z,98398.61
2018-12-07T18:16:47.016Z,98435.64
2018-12-07T18:19:21.559Z,98429.55
2018-12-07T18:21:56.366Z,98454.38
2018-12-07T18:24:30.047Z,98465.19
2018-12-07T18:27:06.239Z,98470.34
2018-12-07T18:29:40.510Z,98493.13
2018-12-07T18:32:15.063Z,98497.92
2018-12-07T18:34:48.344Z,98508.90
2018-12-07T18:37:21.390Z,98514.87
2018-12-07T18:39:56.826Z,98500.70
2018-12-07T18:42:31.334Z,98510.12
2018-12-07T18:45:08.292Z,98520.33
2018-12-07T18:47:42.440Z,98522.27
2018-12-07T18:50:16.597Z,98541.95
2018-12-07T18:52:51.438Z,98542.64
2018-12-07T18:55:26.435Z,98548.73
2018-12-07T18:58:06.041Z,98578.93
2018-12-07T19:00:43.243Z,98590.05
2018-12-07T19:03:19.104Z,98607.14
2018-12-07T19:05:53.056Z,98621.74
2018-12-07T19:08:26.293Z,98623.75
2018-12-07T19:11:04.030Z,98646.52
2018-12-07T19:13:40.518Z,98644.00
2018-12-07T19:16:14.583Z,98644.52
2018-12-07T19:18:51.094Z,98641.84
2018-12-07T19:21:30.317Z,98644.49
2018-12-07T19:24:05.326Z,98643.56
2018-12-07T19:26:42.403Z,98652.26
2018-12-07T19:29:15.529Z,98660.19
2018-12-07T19:31:50.408Z,98673.89
2018-12-07T19:34:28.747Z,98675.17
2018-12-07T19:37:03.837Z,98688.98
2018-12-07T19:39:42.820Z,98681.96
2018-12-07T19:42:17.793Z,98683.39
2018-12-07T19:44:51.551Z,98696.53
2018-12-07T19:47:24.691Z,98707.34
2018-12-07T19:49:59.978Z,98718.67
2018-12-07T19:52:36.191Z,98722.02
2018-12-07T19:55:11.208Z,98726.72
2018-12-07T19:57:46.707Z,98724.96
2018-12-07T20:00:24.573Z,98738.55
2018-12-07T20:02:58.377Z,98735.87
2018-12-07T20:05:32.007Z,98742.59
2018-12-07T20:08:08.200Z,98752.03
2018-12-07T20:10:45.792Z,98760.52
2018-12-07T20:13:22.904Z,98763.78
2018-12-07T20:16:01.172Z,98768.41
2018-12-07T20:18:35.196Z,98766.13
2018-12-07T20:21:09.743Z,98766.95
2018-12-07T20:23:47.853Z,98786.48
2018-12-07T20:26:23.437Z,98797.08
2018-12-07T20:28:56.530Z,98802.55
2018-12-07T20:31:30.515Z,98814.67
2018-12-07T20:34:05.618Z,98820.05
2018-12-07T20:36:38.819Z,98833.06
2018-12-07T20:39:14.710Z,98836.85
2018-12-07T20:41:49.049Z,98844.28
2018-12-07T20:44:23.701Z,98874.61
2018-12-07T20:46:59.186Z,98849.51
2018-12-07T20:49:32.291Z,98871.02
2018-12-07T20:52:06.609Z,98879.65
2018-12-07T20:54:42.663Z,98864.20
2018-12-07T20:57:16.005Z,98871.16
2018-12-07T20:59:49.450Z,98860.55
2018-12-07T21:02:24.335Z,98875.97
2018-12-07T21:05:10.792Z,98875.81
2018-12-07T21:08:12.462Z,98878.97
2018-12-07T21:11:18.272Z,98887.09
2018-12-07T21:14:43.264Z,98890.47
2018-12-07T21:17:40.218Z,98896.05
2018-12-07T21:20:27.093Z,98905.32
2018-12-07T21:23:00.702Z,98913.62
2018-12-07T21:25:37.248Z,98911.34
2018-12-07T21:28:15.485Z,98910.38
2018-12-07T21:31:02.008Z,98906.39
2018-12-07T21:34:19.808Z,98913.05
2018-12-07T21:36:54.788Z,98923.21
2018-12-07T21:40:06.554Z,98923.84
2018-12-07T21:42:40.052Z,98935.44
2018-12-07T21:45:15.826Z,98935.95
2018-12-07T21:48:24.420Z,98952.05
2018-12-07T21:51:32.424Z,98970.93
2018-12-07T21:54:17.049Z,98951.22
2018-12-07T21:56:59.045Z,98948.98
2018-12-07T21:59:32.982Z,98954.96
2018-12-07T22:02:06.123Z,98967.88
2018-12-07T22:04:40.871Z,98974.79
2018-12-07T22:07:15.049Z,98976.08
2018-12-07T22:09:51.084Z,98994.73
2018-12-07T22:12:26.526Z,98982.45
2018-12-07T22:15:05.073Z,98982.93
2018-12-07T22:17:40.369Z,98984.35
2018-12-07T22:20:13.682Z,98993.08
2018-12-07T22:22:47.988Z,98985.94
2018-12-07T22:25:28.443Z,99011.83
2018-12-07T22:28:05.319Z,98998.61
2018-12-07T22:30:38.737Z,98996.50
2018-12-07T22:33:15.804Z,98994.14
2018-12-07T22:35:49.938Z,98999.75
2018-12-07T22:38:24.890Z,99012.82
2018-12-07T22:41:10.304Z,99022.91
2018-12-07T22:43:49.571Z,99032.45
2018-12-07T22:46:22.821Z,99033.34
2018-12-07T22:48:56.458Z,99028.74
2018-12-07T22:51:30.694Z,99036.87
2018-12-07T22:54:06.929Z,99037.80
2018-12-07T22:56:40.070Z,99036.14
2018-12-07T22:59:13.679Z,99033.59
2018-12-07T23:01:46.878Z,99030.46
2018-12-07T23:04:20.228Z,99042.14
2018-12-07T23:06:53.384Z,99047.87
2018-12-07T23:09:28.636Z,99047.84
2018-12-07T23:12:05.204Z,99044.00
2018-12-07T23:14:39.286Z,99035.17
2018-12-07T23:17:12.502Z,99028.06
2018-12-07T23:19:46.425Z,99025.25
2018-12-07T23:22:21.776Z,99030.89
2018-12-07T23:24:58.081Z,99028.20
2018-12-07T23:27:32.283Z,99031.88
2018-12-07T23:30:14.291Z,99033.37
2018-12-07T23:32:48.249Z,99038.47
2018-12-07T23:35:21.153Z,99038.22
2018-12-07T23:37:54.750Z,99033.20
2018-12-07T23:40:29.004Z,99045.41
2018-12-07T23:43:02.284Z,99037.27
2018-12-07T23:45:35.860Z,99036.64
2018-12-07T23:48:09.408Z,99038.17
2018-12-07T23:50:42.372Z,99037.32
2018-12-07T23:53:17.508Z,99042.31
2018-12-07T23:55:52.378Z,99038.78
2018-12-07T23:58:25.423Z,99035.25
